createdAt,value
2022-10-10T00:01:33.311Z,4.55
2022-10-10T00:04:01.923Z,5.03
2022-10-10T00:06:33.013Z,6.85
2022-10-10T00:09:01.943Z,4.28
2022-10-10T00:11:29.585Z,2.78
2022-10-10T00:13:57.476Z,5.88
2022-10-10T00:16:25.336Z,4.03
2022-10-10T00:18:53.639Z,5.65
2022-10-10T00:21:21.300Z,4.35
2022-10-10T00:23:48.748Z,3.67
2022-10-10T00:26:18.989Z,3.63
2022-10-10T00:28:47.820Z,4.10
2022-10-10T00:31:16.121Z,4.05
2022-10-10T00:33:43.710Z,4.63
2022-10-10T00:36:11.216Z,4.95
2022-10-10T00:38:38.551Z,4.20
2022-10-10T00:41:06.180Z,4.05
2022-10-10T00:43:34.835Z,3.10
2022-10-10T00:46:02.355Z,4.32
2022-10-10T00:48:38.143Z,3.13
2022-10-10T00:51:15.279Z,3.67
2022-10-10T00:54:06.540Z,5.18
2022-10-10T00:57:05.734Z,3.42
2022-10-10T00:59:35.313Z,4.13
2022-10-10T01:02:04.874Z,3.72
2022-10-10T01:04:46.892Z,3.28
2022-10-10T01:07:26.765Z,2.65
2022-10-10T01:09:59.230Z,2.50
2022-10-10T01:12:54.341Z,2.00
2022-10-10T01:15:57.121Z,3.15
2022-10-10T01:19:18.699Z,3.90
2022-10-10T01:22:12.084Z,3.70
2022-10-10T01:24:56.434Z,3.70
2022-10-10T01:27:32.898Z,2.75
2022-10-10T01:30:20.045Z,4.50
2022-10-10T01:33:20.789Z,3.13
2022-10-10T01:36:00.993Z,3.17
2022-10-10T01:38:42.236Z,3.35
2022-10-10T01:41:20.129Z,2.33
2022-10-10T01:43:53.555Z,3.20
2022-10-10T01:46:21.034Z,2.42
2022-10-10T01:48:55.120Z,2.83
2022-10-10T01:51:35.951Z,2.75
2022-10-10T01:54:37.510Z,5.15
2022-10-10T01:57:20.012Z,2.65
2022-10-10T02:00:11.672Z,2.72
2022-10-10T02:03:14.543Z,3.33
2022-10-10T02:06:04.291Z,2.65
2022-10-10T02:08:53.727Z,3.60
2022-10-10T02:11:21.537Z,3.50
2022-10-10T02:14:01.556Z,2.22
2022-10-10T02:16:35.441Z,2.10
2022-10-10T02:19:06.978Z,2.20
2022-10-10T02:21:34.939Z,2.47
2022-10-10T02:24:07.474Z,2.47
2022-10-10T02:26:36.842Z,4.18
2022-10-10T02:29:12.901Z,4.20
2022-10-10T02:32:04.160Z,2.10
2022-10-10T02:34:39.429Z,2.08
2022-10-10T02:37:13.952Z,1.85
2022-10-10T02:39:50.737Z,2.88
2022-10-10T02:42:21.893Z,2.65
2022-10-10T02:44:49.757Z,4.40
2022-10-10T02:47:17.662Z,2.72
2022-10-10T02:49:45.862Z,2.60
2022-10-10T02:52:16.331Z,2.63
2022-10-10T02:54:44.179Z,2.10
2022-10-10T02:57:12.587Z,3.47
2022-10-10T02:59:40.090Z,3.53
2022-10-10T03:02:08.316Z,3.65
2022-10-10T03:04:36.557Z,4.55
2022-10-10T03:07:04.898Z,2.53
2022-10-10T03:09:32.506Z,2.88
2022-10-10T03:12:00.069Z,3.22
2022-10-10T03:14:27.478Z,2.40
2022-10-10T03:16:54.738Z,2.75
2022-10-10T03:19:22.119Z,2.80
2022-10-10T03:21:49.561Z,3.60
2022-10-10T03:24:16.933Z,2.40
2022-10-10T03:26:44.716Z,2.22
2022-10-10T03:29:12.315Z,2.80
2022-10-10T03:31:39.789Z,2.58
2022-10-10T03:34:07.168Z,3.08
2022-10-10T03:36:35.122Z,2.40
2022-10-10T03:39:02.750Z,1.80
2022-10-10T03:41:30.246Z,2.20
2022-10-10T03:43:58.007Z,2.58
2022-10-10T03:46:25.804Z,2.30
2022-10-10T03:48:53.964Z,2.40
2022-10-10T03:51:21.354Z,1.65
2022-10-10T03:53:48.620Z,1.92
2022-10-10T03:56:16.288Z,3.42
2022-10-10T03:58:43.910Z,2.45
2022-10-10T04:01:11.474Z,3.15
2022-10-10T04:03:38.884Z,3.00
2022-10-10T04:06:06.651Z,4.53
2022-10-10T04:08:34.073Z,2.28
2022-10-10T04:11:01.356Z,3.08
2022-10-10T04:13:31.152Z,2.05
2022-10-10T04:15:58.541Z,2.63
2022-10-10T04:18:26.145Z,3.65
2022-10-10T04:20:53.644Z,2.58
2022-10-10T04:23:21.283Z,2.65
2022-10-10T04:25:53.191Z,2.28
2022-10-10T04:28:20.780Z,1.50
2022-10-10T04:30:48.387Z,2.30
2022-10-10T04:33:15.932Z,2.78
2022-10-10T04:35:43.695Z,2.58
2022-10-10T04:38:10.885Z,4.65
2022-10-10T04:40:38.232Z,2.10
2022-10-10T04:43:05.734Z,6.22
2022-10-10T04:45:37.426Z,3.55
2022-10-10T04:48:05.238Z,2.97
2022-10-10T04:50:33.459Z,3.45
2022-10-10T04:53:00.699Z,5.22
2022-10-10T04:55:28.321Z,4.20
2022-10-10T04:57:55.723Z,3.85
2022-10-10T05:00:23.380Z,3.22
2022-10-10T05:02:50.914Z,3.45
2022-10-10T05:05:18.671Z,2.72
2022-10-10T05:07:46.131Z,3.40
2022-10-10T05:10:13.518Z,3.42
2022-10-10T05:12:40.811Z,4.75
2022-10-10T05:15:08.898Z,5.88
2022-10-10T05:17:36.533Z,8.07
2022-10-10T05:20:04.938Z,12.68
2022-10-10T05:22:32.465Z,11.48
2022-10-10T05:25:00.196Z,9.98
2022-10-10T05:27:28.717Z,14.07
2022-10-10T05:29:56.337Z,22.27
2022-10-10T05:32:24.148Z,10.32
2022-10-10T05:34:51.546Z,8.15
2022-10-10T05:37:19.074Z,9.07
2022-10-10T05:39:47.239Z,9.10
2022-10-10T05:42:16.558Z,11.55
2022-10-10T05:44:43.996Z,9.70
2022-10-10T05:47:11.448Z,10.68
2022-10-10T05:49:38.852Z,6.97
2022-10-10T05:52:06.601Z,11.20
2022-10-10T05:54:34.118Z,13.23
2022-10-10T05:57:01.731Z,6.45
2022-10-10T05:59:30.103Z,7.93
2022-10-10T06:01:57.692Z,4.35
2022-10-10T06:04:25.166Z,6.55
2022-10-10T06:06:52.628Z,9.45
2022-10-10T06:09:20.011Z,7.03
2022-10-10T06:11:47.411Z,6.75
2022-10-10T06:14:14.956Z,10.35
2022-10-10T06:16:45.345Z,8.57
2022-10-10T06:19:15.061Z,8.05
2022-10-10T06:21:42.820Z,7.65
2022-10-10T06:24:11.059Z,13.40
2022-10-10T06:26:38.756Z,7.05
2022-10-10T06:29:07.579Z,5.63
2022-10-10T06:31:39.690Z,6.15
2022-10-10T06:34:07.797Z,9.60
2022-10-10T06:36:35.525Z,10.70
2022-10-10T06:39:02.917Z,9.27
2022-10-10T06:41:30.451Z,16.15
2022-10-10T06:43:57.889Z,4.97
2022-10-10T06:46:25.151Z,13.15
2022-10-10T06:48:52.620Z,10.65
2022-10-10T06:51:20.220Z,7.07
2022-10-10T06:53:47.718Z,7.28
2022-10-10T06:56:24.966Z,3.92
2022-10-10T06:58:55.602Z,8.10
2022-10-10T07:01:24.773Z,5.00
2022-10-10T07:03:52.378Z,8.55
2022-10-10T07:06:19.777Z,5.95
2022-10-10T07:08:47.136Z,7.63
2022-10-10T07:11:14.984Z,8.57
2022-10-10T07:13:42.380Z,4.28
2022-10-10T07:16:11.640Z,5.95
2022-10-10T07:18:39.118Z,3.92
2022-10-10T07:21:06.783Z,5.22
2022-10-10T07:23:34.216Z,5.55
2022-10-10T07:26:07.601Z,5.72
2022-10-10T07:28:35.305Z,4.88
2022-10-10T07:31:07.436Z,4.43
2022-10-10T07:33:38.898Z,5.75
2022-10-10T07:36:07.332Z,3.53
2022-10-10T07:38:36.260Z,3.50
2022-10-10T07:41:13.694Z,3.88
2022-10-10T07:43:41.751Z,4.00
2022-10-10T07:46:17.868Z,4.53
2022-10-10T07:48:46.038Z,4.72
2022-10-10T07:51:13.733Z,8.93
2022-10-10T07:53:41.582Z,3.63
2022-10-10T07:56:10.624Z,3.55
2022-10-10T07:58:38.610Z,6.22
2022-10-10T08:01:11.555Z,10.60
2022-10-10T08:03:40.447Z,4.05
2022-10-10T08:06:11.681Z,9.98
2022-10-10T08:08:49.999Z,3.80
2022-10-10T08:11:19.996Z,5.05
2022-10-10T08:13:47.725Z,3.90
2022-10-10T08:16:16.173Z,6.90
2022-10-10T08:18:43.824Z,4.57
2022-10-10T08:21:15.473Z,14.10
2022-10-10T08:23:43.083Z,9.30
2022-10-10T08:26:13.730Z,9.30
2022-10-10T08:28:41.867Z,4.80
2022-10-10T08:31:15.713Z,7.00
2022-10-10T08:33:46.148Z,5.38
2022-10-10T08:36:18.032Z,11.40
2022-10-10T08:38:45.766Z,4.63
2022-10-10T08:41:53.067Z,3.00
2022-10-10T08:44:52.486Z,11.13
2022-10-10T08:47:29.835Z,3.17
2022-10-10T08:50:10.721Z,3.20
2022-10-10T08:52:52.038Z,4.78
2022-10-10T08:55:29.785Z,3.22
2022-10-10T08:58:24.169Z,2.55
2022-10-10T09:01:28.738Z,7.90
2022-10-10T09:04:00.833Z,2.97
2022-10-10T09:06:55.957Z,7.70
2022-10-10T09:10:00.490Z,3.20
2022-10-10T09:12:59.860Z,5.80
2022-10-10T09:15:36.582Z,2.85
2022-10-10T09:18:42.425Z,3.22
2022-10-10T09:21:20.087Z,3.90
2022-10-10T09:24:20.706Z,4.38
2022-10-10T09:27:00.839Z,2.47
2022-10-10T09:30:13.117Z,2.63
2022-10-10T09:32:59.404Z,3.20
2022-10-10T09:35:35.992Z,3.35
2022-10-10T09:38:28.643Z,6.68
2022-10-10T09:41:21.621Z,3.50
2022-10-10T09:43:49.253Z,3.83
2022-10-10T09:46:16.704Z,4.65
2022-10-10T09:48:45.228Z,3.85
2022-10-10T09:51:17.909Z,8.50
2022-10-10T09:53:47.798Z,5.32
2022-10-10T09:56:20.457Z,2.13
2022-10-10T09:58:51.010Z,2.88
2022-10-10T10:01:25.416Z,4.20
2022-10-10T10:04:34.484Z,6.50
2022-10-10T10:07:17.477Z,3.60
2022-10-10T10:09:56.839Z,8.30
2022-10-10T10:12:43.448Z,5.97
2022-10-10T10:15:28.816Z,4.28
2022-10-10T10:18:17.871Z,9.35
2022-10-10T10:21:06.611Z,9.40
2022-10-10T10:23:57.319Z,7.43
2022-10-10T10:26:31.045Z,4.93
2022-10-10T10:28:59.017Z,11.75
2022-10-10T10:31:45.286Z,3.85
2022-10-10T10:34:57.686Z,3.55
2022-10-10T10:37:57.578Z,4.07
2022-10-10T10:40:54.862Z,3.85
2022-10-10T10:44:02.389Z,10.18
2022-10-10T10:47:03.015Z,7.53
2022-10-10T10:49:50.666Z,14.80
2022-10-10T10:52:57.911Z,15.80
2022-10-10T10:55:50.988Z,15.90
2022-10-10T11:00:26.353Z,8.75
2022-10-10T11:01:57.633Z,15.68
2022-10-10T11:05:20.030Z,28.90
2022-10-10T11:10:59.841Z,12.80
2022-10-10T11:13:58.380Z,12.52
2022-10-10T11:16:49.180Z,18.55
2022-10-10T11:19:27.651Z,9.73
2022-10-10T11:22:13.732Z,6.75
2022-10-10T11:25:23.566Z,22.05
2022-10-10T11:28:18.479Z,9.25
2022-10-10T11:31:03.781Z,12.70
2022-10-10T11:36:21.558Z,11.77
2022-10-10T11:38:57.836Z,11.10
2022-10-10T11:41:51.164Z,10.07
2022-10-10T11:44:39.443Z,8.13
2022-10-10T11:47:33.534Z,14.90
2022-10-10T11:50:26.895Z,12.18
2022-10-10T11:53:06.213Z,14.13
2022-10-10T11:56:10.890Z,6.68
2022-10-10T11:59:06.555Z,6.75
2022-10-10T12:04:14.165Z,12.60
2022-10-10T12:06:49.000Z,8.93
2022-10-10T12:10:00.266Z,10.38
2022-10-10T12:12:45.583Z,9.13
2022-10-10T12:15:41.153Z,12.45
2022-10-10T12:18:31.329Z,10.63
2022-10-10T12:21:11.449Z,8.02
2022-10-10T12:23:41.275Z,6.80
2022-10-10T12:26:17.952Z,5.07
2022-10-10T12:29:09.067Z,8.45
2022-10-10T12:31:39.607Z,8.55
2022-10-10T12:34:43.174Z,7.45
2022-10-10T12:37:34.143Z,11.88
2022-10-10T12:40:07.524Z,7.93
2022-10-10T12:42:38.874Z,9.30
2022-10-10T12:45:30.719Z,7.05
2022-10-10T12:48:06.762Z,10.52
2022-10-10T12:50:40.966Z,11.60
2022-10-10T12:53:14.387Z,11.55
2022-10-10T12:55:47.263Z,8.32
2022-10-10T12:58:29.309Z,14.10
2022-10-10T13:01:05.119Z,15.77
2022-10-10T13:03:53.873Z,6.70
2022-10-10T13:06:39.458Z,14.95
2022-10-10T13:09:35.373Z,10.07
2022-10-10T13:12:06.893Z,8.55
2022-10-10T13:14:43.525Z,10.30
2022-10-10T13:17:38.417Z,8.68
2022-10-10T13:20:07.568Z,15.40
2022-10-10T13:22:37.553Z,8.80
2022-10-10T13:25:11.509Z,10.70
2022-10-10T13:27:39.013Z,14.30
2022-10-10T13:30:07.680Z,7.93
2022-10-10T13:32:36.572Z,6.90
2022-10-10T13:35:17.614Z,11.25
2022-10-10T13:37:47.728Z,14.88
2022-10-10T13:40:17.966Z,10.30
2022-10-10T13:42:51.386Z,8.48
2022-10-10T13:45:45.655Z,12.07
2022-10-10T13:48:33.681Z,7.45
2022-10-10T13:51:13.268Z,12.02
2022-10-10T13:53:50.965Z,7.68
2022-10-10T13:56:21.812Z,6.18
2022-10-10T13:59:01.207Z,4.93
2022-10-10T14:01:31.494Z,3.90
2022-10-10T14:04:17.259Z,5.55
2022-10-10T14:07:19.781Z,4.88
2022-10-10T14:10:06.425Z,7.35
2022-10-10T14:12:50.659Z,6.22
2022-10-10T14:15:42.551Z,3.63
2022-10-10T14:18:16.041Z,4.10
2022-10-10T14:20:44.922Z,7.53
2022-10-10T14:23:13.439Z,5.15
2022-10-10T14:25:43.920Z,7.80
2022-10-10T14:28:25.197Z,5.38
2022-10-10T14:30:52.736Z,4.45
2022-10-10T14:33:21.149Z,4.03
2022-10-10T14:35:51.858Z,5.15
2022-10-10T14:38:19.331Z,6.18
2022-10-10T14:40:49.706Z,4.40
2022-10-10T14:43:18.507Z,4.97
2022-10-10T14:45:46.065Z,5.97
2022-10-10T14:48:13.834Z,6.40
2022-10-10T14:50:46.244Z,5.65
2022-10-10T14:53:15.241Z,6.25
2022-10-10T14:55:43.866Z,5.20
2022-10-10T14:58:21.686Z,4.95
2022-10-10T15:00:52.031Z,7.75
2022-10-10T15:03:19.797Z,10.27
2022-10-10T15:05:48.697Z,6.78
2022-10-10T15:08:18.921Z,7.00
2022-10-10T15:10:46.779Z,3.95
2022-10-10T15:13:15.299Z,4.45
2022-10-10T15:15:43.000Z,3.30
2022-10-10T15:18:32.144Z,7.05
2022-10-10T15:20:58.238Z,6.72
2022-10-10T15:23:27.243Z,7.25
2022-10-10T15:25:54.669Z,5.80
2022-10-10T15:28:22.092Z,5.80
2022-10-10T15:30:49.874Z,8.15
2022-10-10T15:33:17.410Z,6.22
2022-10-10T15:36:08.070Z,5.97
2022-10-10T15:38:36.134Z,3.88
2022-10-10T15:41:07.569Z,4.57
2022-10-10T15:43:55.293Z,6.07
2022-10-10T15:46:28.107Z,5.63
2022-10-10T15:49:01.737Z,4.90
2022-10-10T15:51:29.935Z,10.65
2022-10-10T15:54:01.346Z,7.72
2022-10-10T15:56:32.174Z,6.68
2022-10-10T15:59:01.901Z,2.97
2022-10-10T16:01:30.848Z,4.00
2022-10-10T16:03:58.641Z,7.32
2022-10-10T16:06:26.404Z,6.15
2022-10-10T16:09:09.957Z,6.85
2022-10-10T16:11:42.132Z,6.70
2022-10-10T16:14:10.557Z,5.85
2022-10-10T16:16:38.714Z,11.00
2022-10-10T16:19:06.676Z,5.72
2022-10-10T16:21:34.659Z,8.10
2022-10-10T16:24:02.036Z,3.45
2022-10-10T16:26:33.236Z,6.78
2022-10-10T16:29:01.896Z,4.78
2022-10-10T16:31:30.336Z,7.82
2022-10-10T16:33:59.560Z,6.78
2022-10-10T16:36:31.214Z,5.05
2022-10-10T16:38:59.731Z,5.57
2022-10-10T16:41:48.793Z,6.60
2022-10-10T16:44:17.688Z,4.25
2022-10-10T16:46:45.176Z,5.03
2022-10-10T16:49:14.366Z,3.58
2022-10-10T16:51:41.736Z,4.07
2022-10-10T16:54:09.215Z,3.38
2022-10-10T16:56:36.671Z,7.05
2022-10-10T16:59:05.031Z,7.05
2022-10-10T17:01:32.831Z,8.65
2022-10-10T17:04:02.117Z,6.47
2022-10-10T17:06:35.376Z,7.22
2022-10-10T17:09:05.917Z,7.78
2022-10-10T17:11:34.426Z,7.25
2022-10-10T17:14:01.957Z,5.07
2022-10-10T17:19:18.510Z,7.10
2022-10-10T17:21:45.996Z,7.00
2022-10-10T17:24:13.656Z,13.05
2022-10-10T17:26:41.639Z,14.77
2022-10-10T17:29:08.864Z,7.53
2022-10-10T17:31:36.395Z,8.95
2022-10-10T17:34:03.726Z,6.38
2022-10-10T17:36:31.053Z,8.45
2022-10-10T17:39:01.568Z,6.20
2022-10-10T17:41:30.019Z,8.27
2022-10-10T17:43:57.632Z,10.57
2022-10-10T17:46:34.875Z,5.05
2022-10-10T17:49:10.939Z,5.63
2022-10-10T17:51:41.388Z,7.57
2022-10-10T17:54:10.252Z,6.13
2022-10-10T17:56:37.823Z,8.10
2022-10-10T17:59:09.678Z,6.18
2022-10-10T18:01:38.272Z,9.32
2022-10-10T18:04:06.899Z,5.20
2022-10-10T18:06:38.028Z,9.10
2022-10-10T18:09:06.126Z,12.68
2022-10-10T18:11:33.767Z,8.05
2022-10-10T18:14:01.343Z,11.45
2022-10-10T18:16:34.111Z,11.63
2022-10-10T18:19:04.663Z,9.30
2022-10-10T18:21:32.350Z,8.20
2022-10-10T18:24:00.889Z,13.43
2022-10-10T18:26:30.724Z,10.43
2022-10-10T18:29:00.226Z,7.65
2022-10-10T18:31:33.427Z,11.07
2022-10-10T18:34:03.946Z,10.15
2022-10-10T18:36:35.560Z,12.02
2022-10-10T18:39:14.035Z,13.25
2022-10-10T18:41:41.397Z,6.60
2022-10-10T18:44:12.844Z,6.60
2022-10-10T18:46:40.863Z,9.05
2022-10-10T18:49:11.773Z,12.45
2022-10-10T18:51:41.633Z,14.57
2022-10-10T18:54:13.569Z,7.75
2022-10-10T18:56:42.778Z,10.25
2022-10-10T18:59:17.552Z,9.05
2022-10-10T19:04:16.541Z,8.93
2022-10-10T19:06:44.627Z,7.45
2022-10-10T19:09:15.503Z,5.18
2022-10-10T19:11:47.403Z,13.07
2022-10-10T19:14:18.449Z,6.35
2022-10-10T19:16:48.321Z,6.45
2022-10-10T19:19:19.057Z,13.68
2022-10-10T19:21:48.974Z,13.15
2022-10-10T19:24:21.402Z,6.63
2022-10-10T19:26:58.266Z,10.00
2022-10-10T19:29:27.338Z,9.80
2022-10-10T19:31:55.151Z,9.70
2022-10-10T19:34:24.020Z,8.57
2022-10-10T19:36:51.535Z,6.53
2022-10-10T19:39:19.149Z,9.73
2022-10-10T19:41:46.662Z,11.02
2022-10-10T19:44:14.043Z,5.32
2022-10-10T19:46:41.390Z,14.38
2022-10-10T19:49:10.299Z,7.82
2022-10-10T19:51:37.590Z,6.70
2022-10-10T19:54:05.098Z,9.68
2022-10-10T19:56:32.606Z,8.43
2022-10-10T19:59:01.319Z,8.85
2022-10-10T20:01:30.430Z,8.70
2022-10-10T20:03:59.232Z,13.40
2022-10-10T20:06:27.856Z,8.15
2022-10-10T20:08:56.044Z,5.18
2022-10-10T20:11:26.572Z,6.45
2022-10-10T20:13:55.648Z,9.82
2022-10-10T20:16:26.271Z,9.77
2022-10-10T20:18:55.027Z,10.93
2022-10-10T20:21:34.250Z,8.82
2022-10-10T20:24:07.822Z,5.40
2022-10-10T20:26:36.721Z,8.10
2022-10-10T20:29:05.998Z,9.02
2022-10-10T20:31:36.339Z,13.50
2022-10-10T20:34:06.335Z,6.30
2022-10-10T20:36:34.846Z,5.80
2022-10-10T20:39:08.037Z,8.63
2022-10-10T20:41:37.833Z,8.77
2022-10-10T20:44:07.500Z,8.48
2022-10-10T20:46:39.946Z,8.82
2022-10-10T20:49:13.891Z,5.93
2022-10-10T20:51:41.508Z,6.53
2022-10-10T20:54:11.492Z,5.82
2022-10-10T20:56:38.732Z,8.95
2022-10-10T20:59:07.444Z,6.07
2022-10-10T21:01:37.243Z,8.05
2022-10-10T21:04:09.328Z,6.40
2022-10-10T21:06:38.492Z,5.38
2022-10-10T21:09:09.304Z,7.05
2022-10-10T21:11:37.864Z,6.00
2022-10-10T21:14:06.018Z,7.43
2022-10-10T21:16:39.699Z,5.63
2022-10-10T21:19:10.413Z,5.07
2022-10-10T21:21:38.010Z,5.45
2022-10-10T21:24:08.730Z,6.18
2022-10-10T21:26:36.160Z,6.38
2022-10-10T21:29:04.137Z,4.28
2022-10-10T21:31:38.369Z,3.72
2022-10-10T21:34:11.247Z,5.80
2022-10-10T21:36:38.824Z,12.18
2022-10-10T21:39:07.360Z,5.60
2022-10-10T21:41:35.713Z,4.85
2022-10-10T21:44:03.088Z,7.30
2022-10-10T21:46:36.589Z,8.15
2022-10-10T21:49:10.266Z,6.85
2022-10-10T21:51:40.633Z,5.50
2022-10-10T21:54:09.541Z,7.55
2022-10-10T21:56:38.466Z,9.30
2022-10-10T21:59:06.542Z,11.50
2022-10-10T22:01:34.635Z,18.02
2022-10-10T22:04:03.065Z,17.65
2022-10-10T22:06:31.633Z,17.83
2022-10-10T22:09:01.334Z,19.55
2022-10-10T22:11:31.338Z,15.98
2022-10-10T22:13:59.181Z,17.88
2022-10-10T22:16:26.571Z,19.73
2022-10-10T22:18:58.327Z,21.75
2022-10-10T22:21:30.687Z,19.20
2022-10-10T22:24:02.076Z,22.40
2022-10-10T22:26:30.011Z,19.55
2022-10-10T22:28:57.891Z,24.80
2022-10-10T22:31:25.909Z,19.25
2022-10-10T22:33:53.381Z,21.77
2022-10-10T22:36:21.122Z,19.85
2022-10-10T22:38:48.500Z,15.52
2022-10-10T22:41:16.065Z,18.63
2022-10-10T22:43:43.477Z,18.60
2022-10-10T22:46:10.916Z,12.25
2022-10-10T22:48:38.486Z,14.60
2022-10-10T22:51:11.527Z,15.15
2022-10-10T22:53:43.689Z,13.90
2022-10-10T22:56:15.525Z,13.30
2022-10-10T22:58:43.736Z,14.90
2022-10-10T23:01:16.972Z,11.55
2022-10-10T23:03:44.881Z,11.95
2022-10-10T23:06:13.013Z,11.93
2022-10-10T23:08:40.661Z,13.23
2022-10-10T23:11:08.415Z,12.55
2022-10-10T23:13:36.059Z,10.93
2022-10-10T23:16:04.531Z,11.65
2022-10-10T23:18:32.682Z,13.05
2022-10-10T23:21:00.689Z,14.05
2022-10-10T23:23:27.966Z,12.02
2022-10-10T23:25:55.442Z,10.65
2022-10-10T23:28:24.186Z,8.60
2022-10-10T23:30:51.653Z,8.65
2022-10-10T23:33:19.013Z,10.68
2022-10-10T23:36:01.055Z,8.40
2022-10-10T23:38:29.592Z,11.50
2022-10-10T23:40:57.667Z,7.10
2022-10-10T23:43:25.601Z,8.38
2022-10-10T23:45:53.363Z,7.05
2022-10-10T23:48:21.231Z,6.97
2022-10-10T23:50:48.811Z,6.90
2022-10-10T23:53:16.259Z,7.43
2022-10-10T23:55:43.947Z,7.95
2022-10-10T23:58:11.501Z,8.38
